createdAt,value
2019-02-15T00:02:26.332Z,40.53
2019-02-15T00:04:54.819Z,40.80
2019-02-15T00:07:23.448Z,41.13
2019-02-15T00:09:51.873Z,63.20
2019-02-15T00:12:20.298Z,43.50
2019-02-15T00:14:49.157Z,39.20
2019-02-15T00:17:19.340Z,39.53
2019-02-15T00:19:52.371Z,42.83
2019-02-15T00:22:20.933Z,44.60
2019-02-15T00:24:49.364Z,36.00
2019-02-15T00:27:17.799Z,34.47
2019-02-15T00:29:46.295Z,37.17
2019-02-15T00:32:15.084Z,36.03
2019-02-15T00:34:43.516Z,31.67
2019-02-15T00:37:11.934Z,29.03
2019-02-15T00:39:40.503Z,28.37
2019-02-15T00:42:09.064Z,31.07
2019-02-15T00:44:37.547Z,31.13
2019-02-15T00:47:22.216Z,37.10
2019-02-15T00:49:52.568Z,33.10
2019-02-15T00:52:22.776Z,32.60
2019-02-15T00:55:07.703Z,28.87
2019-02-15T00:57:52.400Z,28.13
2019-02-15T01:00:22.513Z,32.47
2019-02-15T01:02:52.629Z,31.77
2019-02-15T01:05:22.809Z,28.27
2019-02-15T01:07:52.843Z,32.47
2019-02-15T01:10:37.884Z,31.77
2019-02-15T01:13:08.018Z,32.07
2019-02-15T01:15:36.501Z,30.27
2019-02-15T01:18:04.914Z,30.03
2019-02-15T01:20:33.418Z,28.73
2019-02-15T01:23:01.908Z,28.30
2019-02-15T01:25:32.110Z,27.20
2019-02-15T01:28:02.244Z,27.23
2019-02-15T01:30:48.643Z,26.47
2019-02-15T01:33:21.729Z,32.67
2019-02-15T01:36:03.594Z,28.77
2019-02-15T01:38:39.377Z,30.10
2019-02-15T01:41:12.572Z,32.70
2019-02-15T01:43:45.208Z,30.43
2019-02-15T01:46:18.087Z,29.97
2019-02-15T01:48:46.577Z,33.70
2019-02-15T01:51:15.135Z,29.57
2019-02-15T01:53:43.578Z,31.13
2019-02-15T01:56:11.985Z,33.83
2019-02-15T01:58:40.550Z,33.17
2019-02-15T02:01:09.175Z,32.17
2019-02-15T02:03:37.675Z,34.67
2019-02-15T02:06:06.161Z,32.70
2019-02-15T02:08:34.765Z,35.33
2019-02-15T02:11:03.275Z,38.13
2019-02-15T02:13:31.770Z,34.97
2019-02-15T02:16:00.212Z,40.80
2019-02-15T02:18:28.594Z,40.90
2019-02-15T02:20:57.151Z,40.53
2019-02-15T02:23:25.653Z,36.97
2019-02-15T02:25:54.154Z,36.97
2019-02-15T02:28:22.650Z,39.27
2019-02-15T02:30:51.211Z,40.07
2019-02-15T02:33:19.802Z,39.17
2019-02-15T02:35:48.356Z,41.20
2019-02-15T02:38:16.914Z,45.83
2019-02-15T02:40:45.332Z,43.43
2019-02-15T02:43:13.809Z,46.93
2019-02-15T02:45:42.361Z,42.43
2019-02-15T02:48:10.787Z,44.63
2019-02-15T02:50:39.295Z,44.90
2019-02-15T02:53:07.711Z,44.37
2019-02-15T02:55:36.189Z,42.67
2019-02-15T02:58:04.756Z,43.57
2019-02-15T03:00:33.962Z,44.43
2019-02-15T03:03:02.590Z,44.30
2019-02-15T03:05:31.149Z,42.17
2019-02-15T03:07:59.657Z,41.63
2019-02-15T03:10:28.081Z,41.00
2019-02-15T03:12:56.621Z,39.80
2019-02-15T03:15:25.131Z,40.77
2019-02-15T03:17:53.611Z,35.43
2019-02-15T03:20:30.777Z,37.23
2019-02-15T03:22:52.472Z,37.03
2019-02-15T03:25:21.012Z,28.93
2019-02-15T03:27:49.587Z,29.40
2019-02-15T03:30:18.170Z,30.23
2019-02-15T03:32:46.698Z,78.17
2019-02-15T03:35:15.336Z,98.53
2019-02-15T03:37:45.474Z,81.80
2019-02-15T03:40:21.557Z,52.87
2019-02-15T03:42:50.184Z,39.17
2019-02-15T03:45:18.820Z,39.87
2019-02-15T03:47:47.459Z,38.10
2019-02-15T03:50:16.019Z,43.77
2019-02-15T03:52:44.473Z,44.07
2019-02-15T03:55:12.946Z,34.17
2019-02-15T03:57:41.514Z,30.07
2019-02-15T04:00:12.262Z,23.17
2019-02-15T04:02:40.669Z,16.30
2019-02-15T04:05:09.210Z,11.03
2019-02-15T04:07:37.772Z,9.80
2019-02-15T04:10:08.400Z,8.53
2019-02-15T04:12:36.952Z,9.53
2019-02-15T04:15:06.972Z,12.83
2019-02-15T04:17:35.461Z,12.90
2019-02-15T04:20:05.281Z,22.40
2019-02-15T04:22:33.698Z,12.57
2019-02-15T04:25:02.122Z,12.43
2019-02-15T04:27:30.677Z,13.47
2019-02-15T04:29:59.175Z,14.13
2019-02-15T04:32:27.598Z,14.90
2019-02-15T04:34:56.168Z,14.33
2019-02-15T04:37:24.646Z,14.83
2019-02-15T04:39:53.216Z,12.83
2019-02-15T04:42:21.721Z,23.07
2019-02-15T04:44:50.340Z,21.33
2019-02-15T04:47:18.934Z,26.53
2019-02-15T04:49:47.409Z,27.43
2019-02-15T04:52:15.918Z,29.63
2019-02-15T04:54:44.471Z,35.17
2019-02-15T04:57:13.018Z,33.60
2019-02-15T04:59:41.596Z,36.70
2019-02-15T05:02:10.071Z,36.73
2019-02-15T05:04:38.608Z,34.83
2019-02-15T05:07:07.176Z,46.47
2019-02-15T05:09:35.671Z,41.13
2019-02-15T05:12:04.168Z,43.23
2019-02-15T05:14:52.769Z,43.29
2019-02-15T05:17:15.707Z,47.87
2019-02-15T05:19:44.119Z,50.80
2019-02-15T05:22:12.612Z,50.00
2019-02-15T05:24:41.103Z,68.83
2019-02-15T05:27:09.665Z,55.50
2019-02-15T05:29:38.220Z,50.50
2019-02-15T05:32:06.849Z,52.97
2019-02-15T05:34:35.528Z,48.13
2019-02-15T05:37:04.101Z,46.37
2019-02-15T05:39:32.654Z,45.93
2019-02-15T05:42:01.294Z,44.17
2019-02-15T05:44:29.786Z,42.00
2019-02-15T05:46:58.351Z,40.07
2019-02-15T05:49:26.892Z,57.13
2019-02-15T05:51:55.416Z,61.47
2019-02-15T05:54:24.046Z,51.30
2019-02-15T05:56:52.601Z,69.67
2019-02-15T05:59:21.183Z,54.97
2019-02-15T06:01:49.727Z,59.63
2019-02-15T06:04:18.411Z,68.93
2019-02-15T06:06:46.906Z,62.00
2019-02-15T06:09:15.541Z,74.40
2019-02-15T06:11:44.182Z,77.07
2019-02-15T06:14:12.723Z,83.93
2019-02-15T06:16:41.219Z,88.07
2019-02-15T06:19:09.791Z,77.50
2019-02-15T06:21:38.410Z,63.77
2019-02-15T06:24:06.976Z,46.57
2019-02-15T06:26:35.455Z,52.27
2019-02-15T06:29:04.010Z,47.33
2019-02-15T06:31:32.643Z,36.30
2019-02-15T06:34:01.216Z,35.17
2019-02-15T06:36:31.411Z,32.73
2019-02-15T06:38:59.979Z,35.17
2019-02-15T06:41:28.467Z,30.27
2019-02-15T06:43:57.039Z,25.90
2019-02-15T06:46:25.605Z,23.37
2019-02-15T06:48:54.247Z,21.83
2019-02-15T06:51:23.097Z,26.63
2019-02-15T06:53:51.515Z,20.20
2019-02-15T06:56:20.107Z,14.67
2019-02-15T06:59:06.281Z,14.87
2019-02-15T07:01:36.506Z,16.40
2019-02-15T07:04:06.709Z,18.37
2019-02-15T07:06:35.260Z,23.00
2019-02-15T07:09:04.769Z,23.77
2019-02-15T07:11:33.243Z,21.10
2019-02-15T07:14:01.807Z,18.83
2019-02-15T07:16:30.290Z,18.40
2019-02-15T07:18:58.697Z,21.43
2019-02-15T07:21:27.183Z,37.40
2019-02-15T07:23:55.744Z,27.87
2019-02-15T07:26:24.384Z,43.33
2019-02-15T07:28:52.936Z,38.03
2019-02-15T07:31:21.562Z,53.60
2019-02-15T07:33:50.196Z,38.77
2019-02-15T07:36:18.692Z,38.90
2019-02-15T07:38:47.248Z,36.77
2019-02-15T07:41:15.735Z,29.17
2019-02-15T07:43:44.283Z,27.20
2019-02-15T07:46:12.701Z,24.93
2019-02-15T07:48:41.330Z,19.47
2019-02-15T07:51:10.141Z,16.13
2019-02-15T07:53:38.715Z,18.93
2019-02-15T07:56:07.215Z,22.97
2019-02-15T07:58:35.720Z,18.53
2019-02-15T08:01:04.212Z,44.80
2019-02-15T08:03:32.799Z,18.37
2019-02-15T08:06:01.340Z,10.07
2019-02-15T08:08:29.836Z,12.23
2019-02-15T08:10:58.314Z,9.30
2019-02-15T08:13:26.882Z,9.37
2019-02-15T08:15:55.373Z,12.50
2019-02-15T08:18:23.960Z,13.07
2019-02-15T08:20:52.511Z,11.80
2019-02-15T08:23:20.996Z,14.07
2019-02-15T08:25:49.570Z,8.77
2019-02-15T08:28:18.164Z,13.87
2019-02-15T08:30:46.746Z,15.87
2019-02-15T08:33:15.313Z,6.87
2019-02-15T08:35:43.868Z,5.87
2019-02-15T08:38:12.419Z,7.73
2019-02-15T08:40:40.997Z,11.03
2019-02-15T08:43:09.385Z,7.97
2019-02-15T08:45:37.872Z,8.83
2019-02-15T08:48:06.428Z,9.63
2019-02-15T08:50:34.982Z,7.00
2019-02-15T08:53:03.468Z,9.60
2019-02-15T08:55:32.119Z,12.50
2019-02-15T08:58:00.672Z,12.53
2019-02-15T09:00:29.173Z,11.83
2019-02-15T09:02:57.783Z,13.63
2019-02-15T09:05:26.203Z,13.23
2019-02-15T09:07:54.693Z,9.80
2019-02-15T09:10:23.184Z,10.40
2019-02-15T09:12:51.646Z,13.13
2019-02-15T09:15:22.376Z,11.13
2019-02-15T09:17:51.007Z,16.87
2019-02-15T09:20:19.607Z,34.37
2019-02-15T09:22:48.141Z,27.57
2019-02-15T09:25:16.706Z,29.30
2019-02-15T09:28:03.152Z,34.50
2019-02-15T09:30:31.651Z,22.53
2019-02-15T09:33:00.108Z,18.33
2019-02-15T09:35:28.680Z,15.20
2019-02-15T09:37:57.146Z,14.67
2019-02-15T09:40:25.761Z,11.27
2019-02-15T09:42:54.250Z,11.37
2019-02-15T09:45:22.800Z,7.20
2019-02-15T09:47:52.030Z,12.00
2019-02-15T09:50:21.153Z,8.95
2019-02-15T09:52:50.315Z,9.08
2019-02-15T09:55:19.458Z,8.93
2019-02-15T09:57:48.776Z,11.40
2019-02-15T10:00:17.910Z,9.23
2019-02-15T10:02:47.055Z,9.88
2019-02-15T10:05:16.139Z,8.05
2019-02-15T10:07:45.272Z,9.13
2019-02-15T10:10:14.324Z,9.08
2019-02-15T10:12:43.500Z,11.57
2019-02-15T10:15:12.566Z,6.55
2019-02-15T10:17:41.685Z,8.50
2019-02-15T10:20:10.860Z,11.55
2019-02-15T10:22:40.000Z,10.80
2019-02-15T10:25:09.800Z,7.85
2019-02-15T10:27:38.948Z,11.90
2019-02-15T10:30:12.408Z,11.28
2019-02-15T10:32:41.621Z,14.58
2019-02-15T10:35:11.371Z,13.03
2019-02-15T10:37:40.522Z,11.93
2019-02-15T10:40:10.810Z,9.83
2019-02-15T10:42:39.891Z,10.10
2019-02-15T10:45:16.632Z,20.50
2019-02-15T10:47:45.805Z,18.95
2019-02-15T10:50:14.926Z,14.35
2019-02-15T10:52:44.151Z,13.93
2019-02-15T10:55:13.288Z,8.83
2019-02-15T10:57:42.451Z,10.63
2019-02-15T11:00:15.685Z,14.00
2019-02-15T11:02:45.052Z,9.20
2019-02-15T11:05:14.700Z,14.85
2019-02-15T11:07:43.709Z,6.65
2019-02-15T11:10:12.835Z,4.72
2019-02-15T11:12:42.054Z,6.33
2019-02-15T11:15:17.525Z,9.55
2019-02-15T11:17:46.701Z,9.53
2019-02-15T11:20:17.300Z,9.55
2019-02-15T11:22:46.369Z,8.90
2019-02-15T11:25:15.575Z,5.08
2019-02-15T11:27:44.736Z,5.87
2019-02-15T11:30:15.136Z,3.02
2019-02-15T11:32:44.254Z,2.98
2019-02-15T11:35:13.887Z,3.58
2019-02-15T11:37:43.100Z,5.45
2019-02-15T11:40:14.557Z,2.98
2019-02-15T11:42:43.632Z,3.83
2019-02-15T11:45:13.654Z,7.08
2019-02-15T11:47:42.790Z,7.70
2019-02-15T11:50:13.117Z,9.75
2019-02-15T11:52:42.257Z,4.30
2019-02-15T11:55:11.501Z,4.47
2019-02-15T11:57:40.648Z,16.77
2019-02-15T12:00:14.827Z,14.75
2019-02-15T12:02:44.177Z,7.58
2019-02-15T12:05:13.317Z,16.42
2019-02-15T12:07:42.518Z,19.23
2019-02-15T12:10:11.793Z,17.40
2019-02-15T12:12:40.921Z,13.62
2019-02-15T12:15:10.656Z,3.75
2019-02-15T12:17:39.800Z,10.20
2019-02-15T12:20:11.200Z,22.55
2019-02-15T12:22:40.338Z,9.45
2019-02-15T12:25:09.489Z,34.98
2019-02-15T12:27:38.632Z,25.92
2019-02-15T12:30:12.857Z,31.25
2019-02-15T12:32:41.942Z,20.62
2019-02-15T12:35:11.402Z,9.98
2019-02-15T12:37:40.445Z,9.00
2019-02-15T12:40:10.686Z,6.42
2019-02-15T12:42:39.907Z,5.33
2019-02-15T12:45:16.518Z,8.70
2019-02-15T12:47:45.722Z,8.73
2019-02-15T12:50:18.760Z,8.93
2019-02-15T12:52:47.945Z,5.60
2019-02-15T12:55:17.099Z,7.05
2019-02-15T12:57:46.300Z,10.82
2019-02-15T13:00:18.543Z,6.78
2019-02-15T13:02:47.636Z,13.15
2019-02-15T13:05:16.792Z,9.15
2019-02-15T13:07:45.995Z,4.90
2019-02-15T13:10:25.495Z,4.03
2019-02-15T13:12:54.550Z,9.70
2019-02-15T13:15:23.803Z,13.03
2019-02-15T13:17:52.967Z,6.40
2019-02-15T13:20:22.212Z,8.58
2019-02-15T13:22:51.288Z,4.37
2019-02-15T13:25:20.420Z,7.25
2019-02-15T13:27:49.639Z,8.00
2019-02-15T13:30:18.844Z,10.48
2019-02-15T13:32:47.435Z,5.53
2019-02-15T13:35:19.065Z,7.37
2019-02-15T13:37:48.137Z,3.65
2019-02-15T13:40:17.256Z,5.05
2019-02-15T13:42:46.389Z,6.12
2019-02-15T13:45:15.530Z,13.95
2019-02-15T13:47:44.678Z,5.08
2019-02-15T13:50:14.796Z,5.67
2019-02-15T13:52:43.802Z,5.78
2019-02-15T13:55:13.018Z,5.55
2019-02-15T13:57:42.130Z,3.12
2019-02-15T14:00:15.441Z,3.62
2019-02-15T14:02:44.490Z,4.15
2019-02-15T14:05:13.776Z,4.33
2019-02-15T14:07:42.987Z,6.25
2019-02-15T14:10:13.299Z,8.03
2019-02-15T14:12:42.496Z,9.23
2019-02-15T14:15:12.249Z,5.78
2019-02-15T14:17:48.026Z,3.65
2019-02-15T14:20:13.301Z,5.78
2019-02-15T14:22:42.308Z,9.53
2019-02-15T14:25:13.032Z,12.23
2019-02-15T14:27:42.200Z,5.08
2019-02-15T14:30:12.580Z,5.75
2019-02-15T14:32:41.828Z,6.60
2019-02-15T14:35:14.288Z,8.33
2019-02-15T14:37:43.432Z,15.85
2019-02-15T14:40:12.674Z,18.37
2019-02-15T14:42:41.298Z,10.37
2019-02-15T14:45:11.446Z,15.75
2019-02-15T14:47:40.803Z,17.30
2019-02-15T14:50:10.762Z,15.20
2019-02-15T14:52:39.321Z,39.33
2019-02-15T14:55:09.155Z,39.27
2019-02-15T14:57:37.631Z,47.00
2019-02-15T15:00:13.144Z,42.20
2019-02-15T15:02:41.698Z,33.73
2019-02-15T15:05:11.953Z,24.80
2019-02-15T15:07:40.427Z,21.23
2019-02-15T15:10:09.798Z,23.90
2019-02-15T15:12:38.415Z,21.80
2019-02-15T15:15:12.715Z,27.87
2019-02-15T15:17:41.279Z,25.23
2019-02-15T15:20:11.480Z,24.23
2019-02-15T15:22:40.108Z,17.83
2019-02-15T15:25:12.705Z,17.97
2019-02-15T15:27:41.269Z,19.73
2019-02-15T15:30:11.896Z,15.57
2019-02-15T15:32:40.457Z,22.67
2019-02-15T15:35:10.299Z,48.40
2019-02-15T15:37:38.866Z,41.67
2019-02-15T15:40:10.649Z,33.03
2019-02-15T15:42:39.221Z,22.73
2019-02-15T15:45:09.674Z,17.87
2019-02-15T15:47:38.312Z,14.83
2019-02-15T15:50:08.681Z,14.57
2019-02-15T15:52:37.299Z,16.20
2019-02-15T15:55:07.273Z,24.57
2019-02-15T15:57:35.859Z,24.13
2019-02-15T16:00:05.302Z,18.23
2019-02-15T16:02:33.934Z,16.93
2019-02-15T16:05:02.567Z,17.63
2019-02-15T16:07:31.205Z,14.70
2019-02-15T16:09:59.855Z,13.57
2019-02-15T16:12:28.498Z,17.30
2019-02-15T16:14:57.157Z,17.73
2019-02-15T16:17:27.443Z,20.40
2019-02-15T16:19:56.082Z,23.10
2019-02-15T16:22:26.061Z,27.97
2019-02-15T16:24:54.769Z,29.77
2019-02-15T16:27:23.335Z,33.73
2019-02-15T16:29:51.969Z,43.50
2019-02-15T16:32:20.615Z,56.70
2019-02-15T16:34:49.401Z,77.83
2019-02-15T16:37:18.037Z,76.73
2019-02-15T16:39:46.630Z,66.20
2019-02-15T16:42:15.275Z,35.83
2019-02-15T16:44:43.853Z,41.00
2019-02-15T16:47:12.348Z,36.07
2019-02-15T16:49:40.982Z,46.73
2019-02-15T16:52:09.623Z,48.77
2019-02-15T16:54:38.186Z,45.00
2019-02-15T16:57:06.769Z,48.77
2019-02-15T16:59:35.403Z,45.30
2019-02-15T17:02:03.978Z,33.70
2019-02-15T17:04:32.550Z,41.20
2019-02-15T17:07:01.118Z,25.07
2019-02-15T17:09:29.747Z,22.57
2019-02-15T17:12:00.146Z,69.60
2019-02-15T17:14:28.773Z,47.83
2019-02-15T17:16:57.421Z,53.63
2019-02-15T17:19:26.056Z,56.40
2019-02-15T17:21:54.572Z,55.70
2019-02-15T17:24:23.301Z,50.27
2019-02-15T17:26:51.966Z,34.17
2019-02-15T17:29:22.527Z,41.13
2019-02-15T17:31:51.187Z,71.20
2019-02-15T17:34:19.807Z,98.53
2019-02-15T17:36:48.421Z,93.50
2019-02-15T17:39:17.055Z,73.50
2019-02-15T17:41:45.682Z,95.77
2019-02-15T17:44:14.449Z,132.03
2019-02-15T17:46:43.099Z,153.33
2019-02-15T17:49:11.749Z,105.60
2019-02-15T17:51:41.953Z,78.53
2019-02-15T17:54:10.572Z,136.83
2019-02-15T17:56:39.086Z,107.13
2019-02-15T17:59:07.648Z,48.87
2019-02-15T18:01:36.303Z,60.67
2019-02-15T18:04:04.943Z,78.43
2019-02-15T18:06:33.586Z,45.50
2019-02-15T18:09:02.226Z,37.33
2019-02-15T18:11:30.869Z,25.70
2019-02-15T18:13:59.385Z,31.53
2019-02-15T18:16:28.265Z,39.70
2019-02-15T18:18:56.876Z,48.07
2019-02-15T18:21:25.514Z,52.83
2019-02-15T18:23:54.199Z,37.30
2019-02-15T18:26:22.920Z,34.87
2019-02-15T18:28:51.774Z,235.10
2019-02-15T18:31:20.409Z,188.97
2019-02-15T18:33:49.048Z,116.97
2019-02-15T18:36:17.713Z,127.17
2019-02-15T18:38:46.374Z,115.10
2019-02-15T18:41:15.010Z,106.40
2019-02-15T18:43:43.717Z,91.13
2019-02-15T18:46:12.407Z,95.23
2019-02-15T18:48:41.064Z,231.47
2019-02-15T18:51:09.672Z,108.03
2019-02-15T18:53:38.317Z,119.23
2019-02-15T18:56:06.966Z,114.73
2019-02-15T18:58:35.597Z,59.83
2019-02-15T19:01:04.181Z,44.50
2019-02-15T19:03:32.787Z,70.47
2019-02-15T19:06:01.446Z,105.57
2019-02-15T19:08:30.086Z,95.90
2019-02-15T19:10:58.758Z,19.70
2019-02-15T19:13:27.398Z,30.90
2019-02-15T19:15:56.038Z,35.27
2019-02-15T19:18:24.702Z,27.47
2019-02-15T19:20:53.404Z,39.47
2019-02-15T19:23:22.033Z,28.43
2019-02-15T19:25:50.706Z,65.47
2019-02-15T19:28:19.362Z,65.20
2019-02-15T19:30:47.925Z,54.70
2019-02-15T19:33:16.576Z,55.90
2019-02-15T19:35:45.213Z,48.27
2019-02-15T19:38:13.767Z,47.40
2019-02-15T19:40:42.426Z,40.37
2019-02-15T19:43:12.784Z,45.13
2019-02-15T19:45:41.362Z,48.67
2019-02-15T19:48:10.262Z,46.77
2019-02-15T19:50:38.850Z,49.43
2019-02-15T19:53:07.485Z,58.23
2019-02-15T19:55:36.046Z,51.70
2019-02-15T19:58:04.958Z,52.03
2019-02-15T20:00:35.487Z,53.93
2019-02-15T20:03:03.882Z,91.20
2019-02-15T20:05:32.528Z,90.27
2019-02-15T20:08:01.230Z,82.53
2019-02-15T20:10:30.563Z,73.23
2019-02-15T20:13:00.801Z,72.27
2019-02-15T20:15:29.630Z,69.27
2019-02-15T20:17:58.270Z,83.67
2019-02-15T20:20:26.769Z,79.03
2019-02-15T20:22:55.401Z,75.00
2019-02-15T20:25:23.965Z,77.70
2019-02-15T20:27:54.812Z,65.87
2019-02-15T20:30:23.853Z,58.73
2019-02-15T20:32:52.489Z,59.33
2019-02-15T20:35:21.119Z,57.83
2019-02-15T20:37:49.676Z,73.47
2019-02-15T20:40:18.428Z,66.13
2019-02-15T20:42:47.089Z,62.87
2019-02-15T20:45:21.138Z,74.67
2019-02-15T20:47:49.781Z,74.37
2019-02-15T20:50:18.945Z,81.23
2019-02-15T20:52:47.587Z,82.23
2019-02-15T20:55:18.491Z,63.23
2019-02-15T20:57:47.135Z,70.10
2019-02-15T21:00:21.593Z,80.20
2019-02-15T21:02:50.142Z,100.73
2019-02-15T21:05:18.628Z,108.00
2019-02-15T21:07:47.282Z,114.17
2019-02-15T21:10:15.895Z,103.97
2019-02-15T21:12:44.416Z,91.20
2019-02-15T21:15:14.026Z,86.20
2019-02-15T21:17:42.575Z,98.10
2019-02-15T21:20:12.420Z,86.77
2019-02-15T21:22:41.170Z,82.23
2019-02-15T21:25:11.713Z,88.90
2019-02-15T21:27:40.280Z,75.63
2019-02-15T21:30:14.653Z,76.33
2019-02-15T21:32:43.286Z,64.87
2019-02-15T21:35:11.851Z,68.57
2019-02-15T21:37:40.488Z,67.37
2019-02-15T21:40:17.290Z,68.43
2019-02-15T21:42:45.978Z,87.53
2019-02-15T21:45:14.500Z,73.03
2019-02-15T21:47:43.142Z,77.73
2019-02-15T21:50:17.256Z,91.20
2019-02-15T21:52:44.417Z,74.83
2019-02-15T21:55:14.165Z,77.77
2019-02-15T21:57:42.789Z,74.33
2019-02-15T22:00:14.784Z,109.43
2019-02-15T22:02:43.353Z,144.63
2019-02-15T22:05:12.000Z,97.53
2019-02-15T22:07:40.488Z,85.63
2019-02-15T22:10:09.861Z,69.57
2019-02-15T22:12:38.431Z,75.43
2019-02-15T22:15:10.130Z,47.30
2019-02-15T22:17:38.608Z,59.13
2019-02-15T22:20:10.062Z,61.90
2019-02-15T22:22:38.487Z,46.30
2019-02-15T22:25:07.802Z,75.97
2019-02-15T22:27:36.370Z,96.43
2019-02-15T22:30:15.387Z,108.33
2019-02-15T22:32:43.883Z,87.83
2019-02-15T22:35:12.482Z,73.40
2019-02-15T22:37:41.084Z,107.80
2019-02-15T22:40:30.079Z,132.23
2019-02-15T22:43:13.435Z,72.07
2019-02-15T22:45:42.009Z,64.93
2019-02-15T22:48:10.635Z,93.43
2019-02-15T22:50:39.197Z,116.47
2019-02-15T22:53:07.696Z,94.07
2019-02-15T22:55:36.244Z,98.20
2019-02-15T22:58:04.903Z,61.47
2019-02-15T23:00:55.881Z,52.27
2019-02-15T23:03:26.216Z,47.40
2019-02-15T23:05:54.772Z,44.97
2019-02-15T23:08:23.243Z,44.20
2019-02-15T23:10:51.731Z,42.03
2019-02-15T23:13:20.379Z,42.47
2019-02-15T23:15:49.021Z,42.50
2019-02-15T23:18:19.098Z,48.83
2019-02-15T23:20:47.637Z,45.63
2019-02-15T23:23:16.185Z,46.63
2019-02-15T23:25:44.742Z,51.90
2019-02-15T23:28:13.370Z,43.90
2019-02-15T23:30:41.968Z,42.73
2019-02-15T23:33:10.526Z,36.60
2019-02-15T23:35:39.088Z,41.13
2019-02-15T23:38:07.923Z,41.37
2019-02-15T23:40:36.421Z,40.93
2019-02-15T23:43:04.995Z,36.63
2019-02-15T23:45:33.410Z,38.47
2019-02-15T23:48:02.053Z,37.27
2019-02-15T23:50:30.544Z,37.77
2019-02-15T23:52:59.163Z,41.20
2019-02-15T23:55:27.661Z,36.80
2019-02-15T23:57:56.283Z,38.20
